Time;durP1;ratioP1;P1;durP2;ratioP2;P2;SDS_P1;SDS_P2;PMS_P1;PMS_P2;Temp;Humidity;BMP_temperature;BMP_pressure;BME280_temperature;BME280_humidity;BME280_pressure;Samples;Min_cycle;Max_cycle;Signal;HPM_P1;HPM_P2
2022/04/28 00:00:28;;;;;;;18.67;16.67;;;4.10;99.90;;;;;;5094294;28;20250;-76
2022/04/28 00:02:55;;;;;;;19.70;16.93;;;4.00;99.90;;;;;;5094863;28;20204;-76
2022/04/28 00:05:24;;;;;;;18.73;16.80;;;4.10;99.90;;;;;;5094315;28;20201;-76
2022/04/28 00:07:51;;;;;;;20.20;16.47;;;4.00;99.90;;;;;;5094781;28;20222;-78
2022/04/28 00:10:18;;;;;;;19.07;16.43;;;4.00;99.90;;;;;;5094434;28;20198;-77
2022/04/28 00:12:45;;;;;;;19.83;17.33;;;3.80;99.90;;;;;;5094182;28;20193;-77
2022/04/28 00:15:13;;;;;;;21.77;17.23;;;3.90;99.90;;;;;;5094145;28;20197;-77
2022/04/28 00:17:40;;;;;;;18.10;16.17;;;3.80;99.90;;;;;;5094644;28;20253;-77
2022/04/28 00:20:09;;;;;;;18.73;16.73;;;4.00;99.90;;;;;;5094179;28;20225;-78
2022/04/28 00:22:36;;;;;;;19.03;16.87;;;4.10;99.90;;;;;;5094324;28;20601;-77
2022/04/28 00:25:05;;;;;;;19.33;17.13;;;4.00;99.90;;;;;;5093931;28;20199;-78
2022/04/28 00:27:33;;;;;;;19.87;16.87;;;4.10;99.90;;;;;;5094252;28;20201;-77
2022/04/28 00:30:00;;;;;;;18.17;16.27;;;4.10;99.90;;;;;;5094281;28;20201;-78
2022/04/28 00:32:28;;;;;;;17.77;15.90;;;4.00;99.90;;;;;;5094351;28;20254;-78
2022/04/28 00:34:54;;;;;;;19.40;16.40;;;3.90;99.90;;;;;;5093906;28;20196;-77
2022/04/28 00:37:21;;;;;;;18.30;16.23;;;3.70;99.90;;;;;;5093736;28;20269;-77
2022/04/28 00:39:48;;;;;;;20.10;15.50;;;3.60;99.90;;;;;;5093507;28;20220;-78
2022/04/28 00:42:16;;;;;;;19.37;16.50;;;3.60;99.90;;;;;;5093626;28;20253;-76
2022/04/28 00:44:44;;;;;;;20.60;16.53;;;3.80;99.90;;;;;;5093870;28;20250;-76
2022/04/28 00:47:11;;;;;;;17.10;15.30;;;3.80;99.90;;;;;;5093796;28;20251;-76
2022/04/28 00:52:25;;;;;;;17.60;15.80;;;3.60;99.90;;;;;;5093724;28;20226;-76
2022/04/28 00:54:53;;;;;;;17.40;15.50;;;3.50;99.90;;;;;;5093361;28;20201;-76
2022/04/28 00:57:21;;;;;;;16.30;14.60;;;3.40;99.90;;;;;;5093507;28;20236;-76
2022/04/28 00:59:49;;;;;;;18.70;15.57;;;3.30;99.90;;;;;;5093470;28;20193;-76
2022/04/28 01:02:18;;;;;;;19.10;16.70;;;3.40;99.90;;;;;;5093613;28;20196;-77
2022/04/28 01:04:47;;;;;;;16.50;14.67;;;3.30;99.90;;;;;;5093479;28;20675;-77
2022/04/28 01:07:14;;;;;;;16.93;15.00;;;3.30;99.90;;;;;;5093426;28;20533;-76
2022/04/28 01:09:41;;;;;;;20.77;16.00;;;3.20;99.90;;;;;;5093630;28;20253;-77
2022/04/28 01:12:08;;;;;;;20.43;16.70;;;3.20;99.90;;;;;;5093739;28;20215;-77
2022/04/28 01:14:35;;;;;;;21.77;16.90;;;3.20;99.90;;;;;;5093575;28;20200;-77
2022/04/28 01:17:03;;;;;;;20.73;17.53;;;3.10;99.90;;;;;;5097091;28;20245;-77
2022/04/28 01:19:29;;;;;;;22.13;17.63;;;3.10;99.90;;;;;;5097970;28;20597;-77
2022/04/28 01:21:58;;;;;;;22.93;18.53;;;3.00;99.90;;;;;;5097967;28;20215;-76
2022/04/28 01:24:24;;;;;;;20.90;18.50;;;3.00;99.90;;;;;;5097626;28;20318;-76
2022/04/28 01:26:53;;;;;;;20.47;17.33;;;3.20;99.90;;;;;;5097110;28;20197;-77
2022/04/28 01:29:20;;;;;;;22.57;18.77;;;3.10;99.90;;;;;;5097257;28;20688;-77
2022/04/28 01:31:47;;;;;;;25.27;18.77;;;3.00;99.90;;;;;;5096938;28;20254;-77
2022/04/28 01:34:13;;;;;;;23.67;18.67;;;2.90;99.90;;;;;;5096955;28;20705;-76
2022/04/28 01:36:40;;;;;;;23.77;19.60;;;2.80;99.90;;;;;;5096800;28;20603;-77
2022/04/28 01:39:09;;;;;;;23.47;20.03;;;2.90;99.90;;;;;;5097179;28;20196;-77
2022/04/28 01:41:36;;;;;;;23.13;20.10;;;2.90;99.90;;;;;;5096926;28;20208;-77
2022/04/28 01:44:03;;;;;;;23.53;19.53;;;3.00;99.90;;;;;;5096877;28;20555;-77
2022/04/28 01:46:30;;;;;;;24.47;20.13;;;3.10;99.90;;;;;;5097019;28;20652;-77
2022/04/28 01:48:56;;;;;;;22.23;18.87;;;3.00;99.90;;;;;;5097080;28;20196;-76
2022/04/28 01:56:53;;;;;;;21.33;17.73;;;2.70;99.90;;;;;;5102048;28;20758;-78
2022/04/28 01:59:19;;;;;;;21.33;18.70;;;2.60;99.90;;;;;;5103638;28;20207;-78
2022/04/28 02:01:46;;;;;;;24.23;19.17;;;2.50;99.90;;;;;;5105064;28;20720;-79
2022/04/28 02:04:13;;;;;;;23.27;18.97;;;2.60;99.90;;;;;;5105810;28;20258;-78
2022/04/28 02:06:43;;;;;;;23.37;18.30;;;2.50;99.90;;;;;;5105118;28;20590;-78
2022/04/28 02:09:11;;;;;;;22.07;18.07;;;2.40;99.90;;;;;;5106102;28;20224;-78
2022/04/28 02:11:37;;;;;;;22.30;18.77;;;2.50;99.90;;;;;;5105972;28;20273;-78
2022/04/28 02:14:04;;;;;;;23.97;19.53;;;2.50;99.90;;;;;;5102644;28;21153;-77
2022/04/28 02:16:31;;;;;;;22.87;17.93;;;2.50;99.90;;;;;;5099343;28;20193;-77
2022/04/28 02:18:58;;;;;;;24.27;19.60;;;2.50;99.90;;;;;;5098891;28;20200;-77
2022/04/28 02:21:24;;;;;;;21.73;18.33;;;2.40;99.90;;;;;;5099029;28;20196;-78
2022/04/28 02:23:51;;;;;;;23.87;19.53;;;2.60;99.90;;;;;;5099034;28;20197;-78
2022/04/28 02:26:19;;;;;;;21.43;18.23;;;2.70;99.90;;;;;;5098430;28;20196;-77
2022/04/28 02:28:45;;;;;;;23.63;18.60;;;2.80;99.90;;;;;;5097455;28;20205;-77
2022/04/28 02:31:12;;;;;;;23.10;18.47;;;2.70;99.90;;;;;;5098856;28;20266;-77
2022/04/28 02:33:39;;;;;;;24.17;19.97;;;2.70;99.90;;;;;;5097489;28;20204;-77
2022/04/28 02:36:06;;;;;;;22.83;18.87;;;2.50;99.90;;;;;;5096810;28;20206;-77
2022/04/28 02:38:32;;;;;;;23.07;19.10;;;2.40;99.90;;;;;;5096962;28;20196;-78
2022/04/28 02:40:59;;;;;;;22.73;18.53;;;2.50;99.90;;;;;;5096608;28;20565;-77
2022/04/28 02:43:27;;;;;;;25.53;19.57;;;2.60;99.90;;;;;;5096396;28;20204;-77
2022/04/28 02:45:54;;;;;;;26.70;19.70;;;2.60;99.90;;;;;;5097142;28;20192;-78
2022/04/28 02:48:21;;;;;;;26.23;19.63;;;2.40;99.90;;;;;;5104274;28;20200;-78
2022/04/28 02:50:47;;;;;;;23.90;19.37;;;2.30;99.90;;;;;;5105129;28;20235;-78
2022/04/28 02:53:14;;;;;;;23.93;18.80;;;2.50;99.90;;;;;;5104825;28;20201;-78
2022/04/28 02:55:41;;;;;;;24.07;18.23;;;2.40;99.90;;;;;;5104558;28;20204;-77
2022/04/28 02:58:09;;;;;;;26.73;19.83;;;2.40;99.90;;;;;;5098420;28;20277;-76
2022/04/28 03:00:37;;;;;;;20.97;17.03;;;2.50;99.90;;;;;;5098521;28;20227;-76
2022/04/28 03:03:04;;;;;;;22.23;18.03;;;2.40;99.90;;;;;;5098298;28;20756;-77
2022/04/28 03:05:31;;;;;;;23.90;18.77;;;2.20;99.90;;;;;;5096028;28;20619;-78
2022/04/28 03:10:49;;;;;;;22.20;17.90;;;2.50;99.90;;;;;;5095518;28;20773;-76
2022/04/28 03:13:17;;;;;;;19.87;17.37;;;2.40;99.90;;;;;;5095464;28;20196;-77
2022/04/28 03:15:45;;;;;;;21.33;18.30;;;2.30;99.90;;;;;;5095100;28;20192;-77
2022/04/28 03:18:12;;;;;;;21.50;17.50;;;2.10;99.90;;;;;;5094830;28;20537;-76
2022/04/28 03:20:39;;;;;;;21.87;17.43;;;2.10;99.90;;;;;;5097375;28;20663;-77
2022/04/28 03:23:06;;;;;;;24.77;17.63;;;2.00;99.90;;;;;;5099468;28;20196;-77
2022/04/28 03:25:32;;;;;;;24.80;18.57;;;1.90;99.90;;;;;;5100631;28;20656;-77
2022/04/28 03:27:59;;;;;;;20.67;17.43;;;1.90;99.90;;;;;;5101034;28;20222;-77
2022/04/28 03:30:26;;;;;;;22.23;18.53;;;1.90;99.90;;;;;;5100540;28;20258;-77
2022/04/28 03:32:54;;;;;;;23.57;18.93;;;1.90;99.90;;;;;;5100389;28;20222;-77
2022/04/28 03:35:20;;;;;;;22.83;18.20;;;1.90;99.90;;;;;;5098294;28;20196;-76
2022/04/28 03:37:48;;;;;;;22.90;17.50;;;1.90;99.90;;;;;;5096279;28;20192;-76
2022/04/28 03:40:16;;;;;;;23.37;19.17;;;1.90;99.90;;;;;;5096742;28;20196;-77
2022/04/28 03:42:43;;;;;;;27.73;18.80;;;1.90;99.90;;;;;;5097236;28;20300;-77
2022/04/28 03:45:10;;;;;;;25.93;18.43;;;1.90;99.90;;;;;;5096857;28;20196;-77
2022/04/28 03:47:37;;;;;;;22.97;17.50;;;1.90;99.90;;;;;;5096354;28;20280;-77
2022/04/28 03:50:07;;;;;;;23.80;18.13;;;1.90;99.90;;;;;;5097233;28;20706;-77
2022/04/28 03:52:34;;;;;;;24.40;18.43;;;1.90;99.90;;;;;;5099190;28;20224;-77
2022/04/28 03:55:00;;;;;;;22.33;18.57;;;1.90;99.90;;;;;;5097025;28;20193;-76
2022/04/28 03:57:28;;;;;;;22.90;18.63;;;2.00;99.90;;;;;;5095280;28;20644;-76
2022/04/28 03:59:56;;;;;;;24.73;18.80;;;2.10;99.90;;;;;;5094943;28;20291;-77
2022/04/28 04:02:23;;;;;;;25.53;19.67;;;2.10;99.90;;;;;;5094855;28;20655;-76
2022/04/28 04:04:50;;;;;;;27.80;20.73;;;2.00;99.90;;;;;;5094544;28;20249;-76
2022/04/28 04:07:18;;;;;;;24.13;19.13;;;1.90;99.90;;;;;;5094657;28;20196;-77
2022/04/28 04:09:44;;;;;;;25.97;19.27;;;1.80;99.90;;;;;;5094920;28;20261;-77
2022/04/28 04:12:11;;;;;;;27.73;20.13;;;1.80;99.90;;;;;;5094702;28;20645;-77
2022/04/28 04:14:38;;;;;;;26.83;20.10;;;1.70;99.90;;;;;;5094732;28;20644;-77
2022/04/28 04:17:05;;;;;;;26.53;20.17;;;1.70;99.90;;;;;;5094525;28;20196;-77
2022/04/28 04:19:31;;;;;;;25.33;19.33;;;1.70;99.90;;;;;;5093983;28;20609;-77
2022/04/28 04:21:58;;;;;;;27.87;21.17;;;1.80;99.90;;;;;;5093863;28;20655;-77
2022/04/28 04:24:27;;;;;;;28.90;22.00;;;2.00;99.90;;;;;;5093957;28;20200;-77
2022/04/28 04:26:54;;;;;;;28.53;21.87;;;2.20;99.90;;;;;;5093848;28;20197;-78
2022/04/28 04:29:21;;;;;;;26.87;20.90;;;2.20;99.90;;;;;;5093572;28;20652;-77
2022/04/28 04:34:31;;;;;;;25.30;20.20;;;2.10;99.90;;;;;;5093903;28;20250;-77
2022/04/28 04:36:58;;;;;;;28.23;19.90;;;2.10;99.90;;;;;;5093735;28;20320;-77
2022/04/28 04:39:26;;;;;;;27.40;20.93;;;2.10;99.90;;;;;;5093732;28;20203;-77
2022/04/28 04:41:53;;;;;;;26.20;21.70;;;2.10;99.90;;;;;;5094280;28;20713;-78
2022/04/28 04:44:19;;;;;;;25.87;20.87;;;2.10;99.90;;;;;;5076735;28;20204;-77
2022/04/28 04:46:46;;;;;;;28.77;21.67;;;2.20;99.90;;;;;;5093959;28;20201;-77
2022/04/28 04:49:13;;;;;;;27.70;21.43;;;2.40;99.90;;;;;;5093738;28;20652;-77
2022/04/28 04:51:39;;;;;;;27.23;21.23;;;2.50;99.90;;;;;;5093008;28;20227;-77
2022/04/28 04:54:06;;;;;;;27.23;21.00;;;2.60;99.90;;;;;;5093683;28;20193;-77
2022/04/28 04:56:34;;;;;;;27.37;21.47;;;2.60;99.90;;;;;;5094631;28;20196;-77
2022/04/28 04:59:01;;;;;;;29.57;21.93;;;2.80;99.90;;;;;;5094865;28;20196;-78
2022/04/28 05:01:27;;;;;;;27.23;22.17;;;2.90;99.90;;;;;;5094800;28;20204;-77
2022/04/28 05:03:54;;;;;;;24.70;20.97;;;2.90;99.90;;;;;;5093590;28;20249;-78
2022/04/28 05:06:20;;;;;;;31.80;22.30;;;3.00;99.90;;;;;;5093883;28;20595;-78
2022/04/28 05:08:47;;;;;;;27.07;21.53;;;3.20;99.90;;;;;;5093904;28;20200;-76
2022/04/28 05:11:14;;;;;;;25.30;20.90;;;3.30;99.90;;;;;;5100832;28;20231;-78
2022/04/28 05:13:42;;;;;;;26.77;20.70;;;3.30;99.90;;;;;;5092888;28;20215;-78
2022/04/28 05:16:09;;;;;;;24.40;20.90;;;3.40;99.90;;;;;;5093142;28;20205;-79
2022/04/28 05:18:35;;;;;;;24.70;19.13;;;3.40;99.90;;;;;;5093016;28;20304;-78
2022/04/28 05:21:03;;;;;;;21.90;19.27;;;3.50;99.90;;;;;;5093298;28;20597;-78
2022/04/28 05:23:30;;;;;;;22.23;18.73;;;3.60;99.90;;;;;;5092626;28;20652;-78
2022/04/28 05:25:57;;;;;;;21.27;18.70;;;3.70;99.90;;;;;;5092770;28;20196;-78
2022/04/28 05:28:26;;;;;;;20.70;17.33;;;3.70;99.90;;;;;;5093721;28;20552;-77
2022/04/28 05:30:55;;;;;;;21.30;17.50;;;3.80;99.90;;;;;;5094005;28;20200;-77
2022/04/28 05:33:22;;;;;;;20.13;16.57;;;3.90;99.90;;;;;;5094660;28;20224;-78
2022/04/28 05:35:49;;;;;;;23.90;16.57;;;4.00;99.90;;;;;;5094347;28;20676;-77
2022/04/28 05:38:15;;;;;;;19.97;17.10;;;4.10;99.90;;;;;;5093596;28;20202;-78
2022/04/28 05:40:43;;;;;;;16.90;15.10;;;4.20;99.90;;;;;;5094071;28;20270;-78
2022/04/28 05:45:56;;;;;;;18.53;15.80;;;4.30;99.90;;;;;;5094047;28;20250;-78
2022/04/28 05:48:23;;;;;;;17.70;15.13;;;4.50;99.90;;;;;;5075929;28;20248;-78
2022/04/28 05:50:50;;;;;;;21.00;15.87;;;4.60;99.90;;;;;;5094004;28;20290;-78
2022/04/28 05:53:16;;;;;;;17.40;15.60;;;4.80;99.90;;;;;;5094317;28;20226;-78
2022/04/28 05:55:43;;;;;;;20.93;15.63;;;4.80;99.90;;;;;;5094137;28;20253;-78
2022/04/28 05:58:09;;;;;;;19.50;16.13;;;4.80;99.90;;;;;;5094849;28;20613;-77
2022/04/28 06:00:36;;;;;;;17.43;15.57;;;4.90;99.90;;;;;;5094600;28;20245;-78
2022/04/28 06:03:04;;;;;;;16.47;14.77;;;4.90;99.90;;;;;;5096372;28;20226;-78
2022/04/28 06:05:31;;;;;;;17.00;15.17;;;5.00;99.90;;;;;;5098926;28;20648;-78
2022/04/28 06:07:57;;;;;;;17.53;15.73;;;5.10;99.90;;;;;;5098942;28;20269;-78
2022/04/28 06:10:24;;;;;;;20.43;14.90;;;5.20;99.90;;;;;;5098444;28;20203;-78
2022/04/28 06:12:51;;;;;;;19.13;15.27;;;5.40;99.90;;;;;;5097853;28;20694;-78
2022/04/28 06:15:17;;;;;;;17.50;15.07;;;5.50;99.90;;;;;;5098203;28;20203;-78
2022/04/28 06:17:44;;;;;;;19.30;14.70;;;5.60;99.90;;;;;;5098199;28;20245;-77
2022/04/28 06:20:12;;;;;;;16.53;14.83;;;5.70;99.90;;;;;;5100869;28;20197;-77
2022/04/28 06:22:41;;;;;;;17.90;14.87;;;5.90;99.90;;;;;;5102965;28;20819;-78
2022/04/28 06:25:09;;;;;;;16.40;14.33;;;6.00;99.90;;;;;;5101978;28;20200;-78
2022/04/28 06:27:36;;;;;;;18.10;15.50;;;6.20;99.90;;;;;;5097823;28;20250;-78
2022/04/28 06:30:03;;;;;;;18.27;14.63;;;6.30;99.90;;;;;;5096843;28;20230;-76
2022/04/28 06:32:30;;;;;;;16.17;14.57;;;6.40;99.90;;;;;;5096686;28;20280;-76
2022/04/28 06:34:56;;;;;;;15.97;14.37;;;6.60;99.90;;;;;;5096985;28;20197;-77
2022/04/28 06:37:25;;;;;;;16.47;14.87;;;6.70;99.90;;;;;;5097944;28;20201;-77
2022/04/28 06:39:51;;;;;;;16.70;15.00;;;6.90;99.90;;;;;;5097317;28;20724;-78
2022/04/28 06:42:18;;;;;;;16.43;14.57;;;7.00;99.90;;;;;;5097818;28;20197;-78
2022/04/28 06:44:45;;;;;;;18.10;14.67;;;7.10;99.90;;;;;;5097015;28;20193;-77
2022/04/28 06:47:11;;;;;;;16.97;14.97;;;7.30;99.90;;;;;;5096199;28;20257;-77
2022/04/28 06:49:40;;;;;;;16.23;14.53;;;7.40;99.90;;;;;;5096689;28;20305;-78
2022/04/28 06:52:07;;;;;;;15.70;13.90;;;7.50;99.90;;;;;;5096269;28;20220;-78
2022/04/28 06:54:35;;;;;;;16.40;14.37;;;7.70;99.90;;;;;;5096984;28;20222;-78
2022/04/28 06:57:03;;;;;;;17.70;15.50;;;7.80;99.90;;;;;;5096151;28;20200;-78
2022/04/28 06:59:29;;;;;;;18.97;14.30;;;8.00;99.90;;;;;;5096304;28;20247;-78
2022/04/28 07:01:56;;;;;;;19.17;14.80;;;8.20;99.90;;;;;;5096737;28;20263;-77
2022/04/28 07:04:23;;;;;;;16.10;14.60;;;8.30;99.90;;;;;;5096284;28;20203;-77
2022/04/28 07:06:49;;;;;;;15.47;13.20;;;8.40;99.90;;;;;;5096220;28;20193;-77
2022/04/28 07:09:16;;;;;;;15.70;14.10;;;8.60;99.90;;;;;;5102598;28;20211;-78
2022/04/28 07:11:44;;;;;;;15.33;13.80;;;8.90;99.90;;;;;;5105084;28;20192;-78
2022/04/28 07:14:11;;;;;;;14.77;13.27;;;9.00;99.90;;;;;;5105221;28;20207;-79
2022/04/28 07:16:37;;;;;;;14.20;12.70;;;9.10;99.90;;;;;;5105703;28;20235;-78
2022/04/28 07:19:06;;;;;;;12.63;11.43;;;9.40;99.90;;;;;;5107491;28;20196;-78
2022/04/28 07:21:33;;;;;;;13.57;12.27;;;9.60;99.90;;;;;;5107029;28;20197;-78
2022/04/28 07:24:00;;;;;;;12.80;11.50;;;9.80;99.90;;;;;;5107886;28;20200;-78
2022/04/28 07:26:26;;;;;;;12.40;11.20;;;10.00;99.90;;;;;;5104380;28;20192;-77
2022/04/28 07:28:54;;;;;;;11.63;10.53;;;10.20;99.90;;;;;;5100689;28;20712;-77
2022/04/28 07:31:21;;;;;;;11.90;10.70;;;10.40;99.90;;;;;;5100623;28;20289;-77
2022/04/28 07:33:48;;;;;;;10.83;9.73;;;10.70;99.90;;;;;;5099609;28;20690;-78
2022/04/28 07:36:14;;;;;;;10.73;9.70;;;10.90;99.90;;;;;;5099443;28;20200;-78
2022/04/28 07:38:41;;;;;;;10.37;9.27;;;11.10;99.90;;;;;;5099254;28;20204;-77
2022/04/28 07:41:08;;;;;;;9.37;8.47;;;11.30;99.90;;;;;;5099768;28;20203;-77
2022/04/28 07:43:34;;;;;;;10.90;8.77;;;11.50;99.90;;;;;;5100225;28;20200;-77
2022/04/28 07:46:03;;;;;;;10.00;8.70;;;11.70;99.90;;;;;;5100093;28;20667;-78
2022/04/28 07:48:29;;;;;;;9.30;8.40;;;11.90;99.90;;;;;;5099647;28;20200;-78
2022/04/28 07:50:56;;;;;;;9.47;8.37;;;12.10;99.90;;;;;;5098162;28;20227;-78
2022/04/28 07:53:23;;;;;;;8.77;7.97;;;12.30;99.90;;;;;;5098290;28;20232;-77
2022/04/28 07:58:30;;;;;;;8.63;7.73;;;12.60;99.90;;;;;;5095849;28;20202;-79
2022/04/28 08:00:57;;;;;;;9.60;8.50;;;12.80;99.90;;;;;;5096742;28;20226;-78
2022/04/28 08:03:25;;;;;;;9.07;7.50;;;13.00;99.90;;;;;;5097700;28;20249;-79
2022/04/28 08:05:52;;;;;;;8.80;8.00;;;13.10;99.90;;;;;;5098093;28;20192;-77
2022/04/28 08:08:20;;;;;;;9.23;7.50;;;13.30;99.90;;;;;;5097239;28;20560;-81
2022/04/28 08:10:47;;;;;;;11.37;7.50;;;13.60;99.90;;;;;;5096824;28;20197;-77
2022/04/28 08:13:13;;;;;;;8.97;7.10;;;13.70;99.90;;;;;;5096275;28;20220;-78
2022/04/28 08:15:40;;;;;;;7.97;7.17;;;14.00;99.90;;;;;;5097269;28;20196;-78
2022/04/28 08:18:07;;;;;;;7.97;6.87;;;14.10;99.90;;;;;;5097051;28;20196;-78
2022/04/28 08:20:35;;;;;;;9.03;6.83;;;14.30;99.90;;;;;;5096098;28;20242;-79
2022/04/28 08:23:02;;;;;;;7.83;7.03;;;14.40;99.90;;;;;;5099794;28;20271;-79
2022/04/28 08:25:29;;;;;;;8.03;6.80;;;14.50;99.90;;;;;;5098101;28;20197;-78
2022/04/28 08:27:56;;;;;;;7.30;6.60;;;14.70;99.90;;;;;;5097004;28;20200;-79
2022/04/28 08:30:23;;;;;;;7.07;6.43;;;14.90;99.90;;;;;;5093397;28;20200;-78
2022/04/28 08:32:49;;;;;;;8.20;5.33;;;15.20;99.90;;;;;;5093245;28;20618;-79
2022/04/28 08:35:16;;;;;;;5.83;5.33;;;15.10;93.00;;;;;;5093306;28;20230;-79
2022/04/28 08:37:44;;;;;;;5.67;5.17;;;15.30;93.80;;;;;;5093301;28;20200;-80
2022/04/28 08:40:12;;;;;;;5.97;4.83;;;15.60;91.60;;;;;;5093278;28;20200;-79
2022/04/28 08:42:41;;;;;;;4.90;4.40;;;15.80;74.60;;;;;;5093078;28;20230;-78
2022/04/28 08:45:08;;;;;;;4.90;4.50;;;16.20;62.20;;;;;;5092938;28;20192;-80
2022/04/28 08:47:34;;;;;;;5.50;5.00;;;16.20;60.60;;;;;;5092794;28;20200;-80
2022/04/28 08:50:01;;;;;;;5.65;5.10;;;16.40;64.10;;;;;;5092934;28;20228;-80
2022/04/28 08:52:28;;;;;;;6.07;5.00;;;16.60;62.40;;;;;;5092820;28;20285;-80
2022/04/28 08:54:57;;;;;;;5.50;4.63;;;16.60;54.40;;;;;;5092965;28;20242;-81
2022/04/28 08:57:24;;;;;;;7.15;4.72;;;16.80;55.30;;;;;;5092685;28;20738;-79
2022/04/28 08:59:51;;;;;;;7.68;5.13;;;16.90;53.80;;;;;;5092863;28;20246;-80
2022/04/28 09:02:24;;;;;;;5.43;4.93;;;16.90;50.10;;;;;;5092735;28;20196;-80
2022/04/28 09:04:50;;;;;;;5.35;4.85;;;16.70;50.70;;;;;;5092921;28;20210;-80
2022/04/28 09:07:17;;;;;;;6.70;4.72;;;16.80;52.90;;;;;;5092923;28;20219;-79
2022/04/28 09:09:44;;;;;;;7.88;5.05;;;17.00;52.00;;;;;;5092834;28;20192;-80
2022/04/28 09:12:12;;;;;;;6.15;5.55;;;16.50;50.50;;;;;;5092657;28;20200;-80
2022/04/28 09:14:43;;;;;;;5.78;5.15;;;16.10;51.20;;;;;;5092632;28;20196;-80
2022/04/28 09:17:10;;;;;;;5.97;5.43;;;16.10;52.80;;;;;;5092953;28;20196;-81
2022/04/28 09:19:40;;;;;;;6.40;5.80;;;16.80;54.30;;;;;;5092730;28;20207;-80
2022/04/28 09:22:09;;;;;;;7.38;6.25;;;17.20;53.50;;;;;;5092579;28;20648;-80
2022/04/28 09:24:37;;;;;;;6.93;6.22;;;17.50;54.80;;;;;;5092697;28;20567;-79
2022/04/28 09:27:04;;;;;;;7.90;7.10;;;17.70;51.00;;;;;;5092615;28;20555;-80
2022/04/28 09:29:36;;;;;;;6.00;5.45;;;17.40;49.70;;;;;;5092613;28;20258;-80
2022/04/28 09:32:06;;;;;;;6.07;5.50;;;17.90;47.30;;;;;;5092767;28;20196;-80
2022/04/28 09:34:33;;;;;;;6.57;5.72;;;18.00;44.00;;;;;;5092485;28;20695;-79
2022/04/28 09:37:01;;;;;;;5.93;5.43;;;18.60;43.10;;;;;;5094232;28;20363;-79
2022/04/28 09:42:33;;;;;;;6.05;5.43;;;18.20;45.60;;;;;;5096344;28;20194;-79
2022/04/28 09:45:02;;;;;;;5.93;5.43;;;17.50;44.10;;;;;;5096318;28;20196;-79
2022/04/28 09:47:30;;;;;;;5.55;4.88;;;17.30;46.00;;;;;;5096217;28;20201;-79
2022/04/28 09:49:57;;;;;;;6.32;5.18;;;17.20;45.30;;;;;;5095990;28;20232;-82
2022/04/28 09:52:30;;;;;;;5.88;5.28;;;17.20;44.80;;;;;;5095889;28;20662;-80
2022/04/28 09:55:00;;;;;;;8.45;5.57;;;17.30;44.70;;;;;;5096278;28;20218;-80
2022/04/28 09:57:27;;;;;;;5.40;4.90;;;17.40;43.90;;;;;;5096144;28;20196;-79
2022/04/28 09:59:56;;;;;;;5.72;5.03;;;18.30;44.10;;;;;;5096299;28;20197;-79
2022/04/28 10:02:25;;;;;;;5.40;4.90;;;18.30;41.50;;;;;;5095795;28;20529;-78
2022/04/28 10:04:53;;;;;;;7.00;5.18;;;18.40;40.20;;;;;;5095728;28;20245;-80
2022/04/28 10:07:20;;;;;;;5.50;4.88;;;18.20;38.80;;;;;;5095971;28;20197;-79
2022/04/28 10:09:48;;;;;;;5.25;4.50;;;18.10;37.60;;;;;;5095969;28;20253;-79
2022/04/28 10:12:18;;;;;;;5.28;4.78;;;18.10;35.90;;;;;;5095753;28;20655;-80
2022/04/28 10:14:46;;;;;;;5.85;4.68;;;18.00;38.50;;;;;;5095534;28;20413;-79
2022/04/28 10:17:22;;;;;;;6.57;4.43;;;18.40;38.70;;;;;;5095560;28;20652;-79
2022/04/28 10:19:54;;;;;;;5.18;4.53;;;19.40;36.90;;;;;;5095693;28;20283;-78
2022/04/28 10:22:25;;;;;;;5.55;4.68;;;20.10;34.70;;;;;;5095736;28;20196;-79
2022/04/28 10:33:06;;;;;;;4.82;4.43;;;19.40;29.90;;;;;;5095177;28;20615;-79
2022/04/28 10:35:37;;;;;;;4.32;3.90;;;19.20;29.50;;;;;;5095268;28;20541;-79
2022/04/28 10:38:12;;;;;;;4.45;4.05;;;20.30;29.00;;;;;;5095012;28;20258;-78
2022/04/28 10:40:40;;;;;;;7.03;4.50;;;21.40;27.30;;;;;;5095211;28;20249;-78
2022/04/28 10:43:20;;;;;;;5.10;4.60;;;22.10;26.10;;;;;;5094877;28;20654;-78
2022/04/28 10:45:49;;;;;;;4.45;3.95;;;22.40;25.50;;;;;;5095080;28;20200;-79
2022/04/28 10:48:28;;;;;;;4.47;4.00;;;23.50;24.10;;;;;;5093909;28;20192;-79
2022/04/28 10:51:17;;;;;;;4.47;4.00;;;23.90;24.20;;;;;;5094497;28;20583;-78
2022/04/28 10:54:06;;;;;;;3.85;3.42;;;24.90;23.80;;;;;;5094798;28;20273;-79
2022/04/28 10:57:00;;;;;;;4.35;3.95;;;25.20;21.50;;;;;;5094767;28;20204;-79
2022/04/28 10:59:35;;;;;;;4.47;4.07;;;24.90;20.10;;;;;;5094733;28;20288;-80
2022/04/28 11:02:40;;;;;;;5.57;4.20;;;23.60;20.00;;;;;;5094912;28;20192;-79
2022/04/28 11:05:42;;;;;;;5.28;4.00;;;24.30;21.60;;;;;;5094632;28;20200;-79
2022/04/28 11:08:33;;;;;;;5.57;4.20;;;24.70;19.60;;;;;;5094416;28;20647;-79
2022/04/28 11:11:09;;;;;;;3.97;3.67;;;26.00;18.10;;;;;;5094380;28;20200;-80
2022/04/28 11:13:37;;;;;;;5.60;5.10;;;26.80;18.00;;;;;;5094206;28;20219;-79
2022/04/28 11:16:04;;;;;;;4.95;4.00;;;24.70;16.90;;;;;;5094505;28;20230;-79
2022/04/28 11:18:31;;;;;;;5.72;4.28;;;23.70;18.40;;;;;;5094352;28;20196;-79
2022/04/28 11:21:02;;;;;;;4.63;4.22;;;22.90;19.70;;;;;;5094061;28;20200;-79
2022/04/28 11:23:40;;;;;;;4.47;4.10;;;22.30;20.40;;;;;;5094207;28;20230;-79
2022/04/28 11:26:07;;;;;;;4.43;4.03;;;24.00;20.50;;;;;;5093906;28;20215;-78
2022/04/28 11:28:35;;;;;;;5.20;4.15;;;25.50;18.90;;;;;;5094285;28;20207;-79
2022/04/28 11:31:06;;;;;;;4.97;4.47;;;26.50;17.90;;;;;;5094147;28;20196;-79
2022/04/28 11:33:33;;;;;;;4.22;3.92;;;26.90;16.00;;;;;;5093900;28;20631;-79
2022/04/28 11:35:59;;;;;;;5.13;4.13;;;27.10;18.00;;;;;;5094033;28;20254;-79
2022/04/28 11:38:27;;;;;;;4.53;4.00;;;27.40;16.00;;;;;;5093868;28;20268;-78
2022/04/28 11:41:03;;;;;;;4.97;4.40;;;28.50;15.40;;;;;;5093799;28;20200;-79
2022/04/28 11:43:32;;;;;;;4.55;4.15;;;29.00;14.70;;;;;;5093681;28;20219;-79
2022/04/28 11:46:00;;;;;;;4.10;3.80;;;29.70;13.80;;;;;;5093885;28;20283;-79
2022/04/28 11:48:28;;;;;;;5.43;4.55;;;29.70;12.70;;;;;;5093676;28;20268;-80
2022/04/28 11:51:01;;;;;;;4.30;3.90;;;29.40;13.00;;;;;;5093629;28;20288;-79
2022/04/28 11:53:40;;;;;;;6.03;4.63;;;29.90;12.80;;;;;;5094023;28;20196;-79
2022/04/28 11:56:16;;;;;;;4.80;4.40;;;29.20;12.50;;;;;;5093886;28;20199;-79
2022/04/28 11:58:43;;;;;;;4.95;4.50;;;29.20;12.50;;;;;;5093713;28;20199;-79
2022/04/28 12:01:12;;;;;;;5.88;4.70;;;29.60;11.60;;;;;;5093529;28;20655;-80
2022/04/28 12:03:38;;;;;;;4.53;3.95;;;30.00;12.10;;;;;;5093777;28;20223;-79
2022/04/28 12:06:05;;;;;;;4.28;3.97;;;30.30;12.10;;;;;;5093679;28;20196;-79
2022/04/28 12:08:33;;;;;;;4.25;3.85;;;30.70;11.80;;;;;;5093686;28;20273;-79
2022/04/28 12:19:28;;;;;;;4.65;4.20;;;30.60;9.90;;;;;;5093315;28;20214;-79
2022/04/28 12:22:02;;;;;;;4.72;4.40;;;31.50;10.10;;;;;;5093222;28;20230;-79
2022/04/28 12:24:32;;;;;;;4.10;3.80;;;31.90;9.20;;;;;;5093165;28;20233;-79
2022/04/28 12:27:06;;;;;;;5.75;4.45;;;32.30;9.50;;;;;;5093464;28;20217;-79
2022/04/28 12:29:48;;;;;;;5.00;4.43;;;32.30;9.60;;;;;;5093237;28;20206;-79
2022/04/28 12:32:15;;;;;;;8.55;4.93;;;31.40;10.20;;;;;;5093468;28;20240;-79
2022/04/28 12:34:42;;;;;;;7.75;4.68;;;30.30;10.70;;;;;;5092976;28;20267;-78
2022/04/28 12:37:09;;;;;;;5.47;4.82;;;30.50;10.50;;;;;;5093759;28;20200;-79
2022/04/28 12:39:58;;;;;;;5.55;5.03;;;31.00;10.50;;;;;;5093586;28;20198;-79
2022/04/28 12:42:29;;;;;;;4.75;4.35;;;31.10;9.90;;;;;;5093275;28;20206;-80
2022/04/28 12:45:00;;;;;;;5.50;4.10;;;32.40;9.80;;;;;;5093376;28;20498;-80
2022/04/28 12:47:36;;;;;;;4.97;4.40;;;32.90;9.20;;;;;;5093748;28;20188;-79
2022/04/28 12:50:19;;;;;;;4.55;4.13;;;32.70;9.00;;;;;;5093273;28;20670;-79
2022/04/28 12:52:46;;;;;;;5.05;4.65;;;33.80;8.70;;;;;;5093306;28;20200;-80
2022/04/28 12:55:13;;;;;;;5.53;4.72;;;33.30;7.60;;;;;;5093174;28;20294;-79
2022/04/28 12:57:39;;;;;;;5.07;4.68;;;32.70;7.70;;;;;;5093589;28;20195;-79
2022/04/28 13:00:10;;;;;;;5.80;4.80;;;33.40;8.10;;;;;;5094260;28;20644;-79
2022/04/28 13:02:38;;;;;;;5.72;5.03;;;31.40;7.20;;;;;;5092970;28;20200;-80
2022/04/28 13:05:12;;;;;;;5.32;4.85;;;30.00;8.40;;;;;;5092840;28;20223;-79
2022/04/28 13:07:40;;;;;;;5.50;5.00;;;30.50;9.00;;;;;;5092666;28;20191;-79
2022/04/28 13:10:08;;;;;;;8.70;4.90;;;28.70;10.30;;;;;;5092573;28;20223;-79
2022/04/28 13:12:35;;;;;;;5.70;4.40;;;31.20;10.40;;;;;;5095597;28;20248;-79
2022/04/28 13:15:02;;;;;;;5.13;4.72;;;32.40;9.50;;;;;;5096809;28;20199;-79
2022/04/28 13:17:31;;;;;;;5.15;4.55;;;32.00;9.10;;;;;;5096949;28;20647;-79
2022/04/28 13:19:57;;;;;;;4.93;4.40;;;31.50;9.90;;;;;;5096540;28;20245;-79
2022/04/28 13:22:24;;;;;;;5.25;4.85;;;32.40;8.50;;;;;;5096642;28;20226;-80
2022/04/28 13:24:51;;;;;;;5.20;4.80;;;32.70;7.90;;;;;;5096215;28;20219;-79